首页
METAR-TAF:

METAR-TAF

机场 :

图森, 亞利桑那州, 美国

纬度: 32-07-53N, 经度: 110-57-19W, 海拔: 805米

当前天气观测

该预报发布于31分钟前的00:53 UTC
风速7节,风向
温度 19°C
湿度 73%
气压 1009 hPa
能見度: 16.1公里
多云层高于3800英尺
阴天层高于6500英尺

METAR: KTUS 200053Z 10007KT 10SM BKN038 OVC065 19/14 A2981 RMK AO2 SLP062 T01890144 $

时间: 18:24 (01:24 UTC)

预报

该预报发布于2小时和3分钟前的23:21 UTC
预报有效从20日的 00点(UTC)到 20日的 24点(UTC)
风速10节,风向
能見度: 10公里
散云层高于6000英尺, 积雨云.
多云层高于8000英尺
附近有雷暴
短暂存在
从 20日的 03点(UTC)到 20日的 06点(UTC)
能見度: 6.4公里
多云层高于5000英尺, 积雨云.
雷暴, 小雨
从 20日的 0600点(UTC)
风速15节,风向南转西南
能見度: 10公里
阴天层高于5000英尺
小阵雨

TAF: KTUS 192321Z 2000/2024 10010KT P6SM VCTS SCT060CB BKN080 TEMPO 2003/2006 4SM -TSRA BKN050CB FM200600 20015KT P6SM -SHRA OVC050

超过4000个机场的气象观测和天气预报(METAR&TAF报告)。

可查询的气象台以黄色和红色小点在地图上表示。

将鼠标移到小点上方,可查看气象台名称。

然后点击查看天气观测和预报。

如需切换地图:点击带黑十字的绿色按钮放大地图;点击带横线的绿色按钮缩小地图;或者点击绿色箭头查看邻近地区的地图。


METAR-TAF: